Brady, Montana
Current Conditions -  °F | °C
As of 4:53 PM on Monday 20 Oct 2014 (Local Time) from KGTF Reporting Station
Clear Clear  
Wind Chill: 25°   Ceiling: Unl
Heat Index: 25°   Visibility: 10mi
Dew Point: -1°   Wind: 14mph
Humidity: 18%   Direction: 220°SW
Pressure: 29.76"   Gusts: NA
Location:  48.03°N, 111.85°W
Report Text: KGTF 202253Z 22012KT 10SM CLR 25/M01 A2976 RMK AO2 SLP053 T02501011
Loading
Personal Weather Stations






























Interactive Weather Map
Tropical Storm Tracking
New forecast layout! Learn more

10-Day Weather Forecast

Advertisements
Track Severe Weather on mobile